Time;durP1;ratioP1;P1;durP2;ratioP2;P2;SDS_P1;SDS_P2;PMS_P1;PMS_P2;Temp;Humidity;BMP_temperature;BMP_pressure;BME280_temperature;BME280_humidity;BME280_pressure;Samples;Min_cycle;Max_cycle;Signal;HPM_P1;HPM_P2
2023/10/13 00:00:25;;;;;;;15.40;8.57;;;;;;;16.12;100.00;100319.66;5095804;28;20045;-83
2023/10/13 00:02:59;;;;;;;21.08;9.00;;;;;;;16.10;100.00;100326.94;5094607;28;20044;-82
2023/10/13 00:08:24;;;;;;;20.05;10.45;;;;;;;15.93;100.00;100307.72;5091330;28;20052;-83
2023/10/13 00:10:59;;;;;;;14.48;9.23;;;;;;;16.06;100.00;100325.44;5084681;28;20063;-82
2023/10/13 00:13:30;;;;;;;14.10;9.00;;;;;;;16.13;100.00;100352.56;5093143;28;20047;-82
2023/10/13 00:16:09;;;;;;;14.85;8.88;;;;;;;15.81;100.00;100295.22;5084559;28;20044;-84
2023/10/13 00:18:45;;;;;;;14.85;8.70;;;;;;;15.82;100.00;100308.47;5091015;28;20060;-83
2023/10/13 00:21:24;;;;;;;13.35;8.98;;;;;;;15.94;100.00;100331.66;5092083;28;20082;-83
2023/10/13 00:26:55;;;;;;;13.50;8.73;;;;;;;15.92;100.00;100316.69;5088862;28;19921;-84
2023/10/13 00:32:12;;;;;;;16.15;9.63;;;;;;;15.97;100.00;100314.56;5069196;28;20036;-84
2023/10/13 00:34:41;;;;;;;16.63;10.13;;;;;;;16.10;100.00;100326.06;5088124;28;20036;-82
2023/10/13 00:37:41;;;;;;;16.58;8.93;;;;;;;16.07;100.00;100324.47;5075453;28;20099;-83
2023/10/13 00:40:51;;;;;;;17.08;9.10;;;;;;;16.03;100.00;100308.78;5096172;28;20043;-84
2023/10/13 00:43:34;;;;;;;12.60;8.75;;;;;;;16.11;100.00;100338.47;5083593;28;20045;-81
2023/10/13 00:46:18;;;;;;;15.98;8.68;;;;;;;16.06;100.00;100328.09;5075168;28;20045;-82
2023/10/13 01:00:20;;;;;;;17.15;9.07;;;;;;;16.07;100.00;100336.97;6085615;22;4409758;-83
2023/10/13 01:03:06;;;;;;;16.63;9.75;;;;;;;15.94;100.00;100312.09;6249848;23;20008;-83
2023/10/13 01:08:37;;;;;;;15.63;9.07;;;;;;;16.02;100.00;100310.59;6259420;23;20050;-83
2023/10/13 01:11:13;;;;;;;14.98;9.40;;;;;;;16.05;100.00;100317.56;6234895;23;20020;-83
2023/10/13 01:14:02;;;;;;;16.20;9.35;;;;;;;15.85;100.00;100275.38;6235764;23;20459;-83
2023/10/13 01:23:28;;;;;;;14.15;9.27;;;;;;;16.01;100.00;100306.22;6234511;23;20024;-83
2023/10/13 01:35:34;;;;;;;19.17;11.02;;;;;;;15.93;100.00;100297.03;5072351;27;1800069;-84
2023/10/13 01:41:29;;;;;;;15.73;10.85;;;;;;;15.84;100.00;100308.38;5098897;28;20052;-85
2023/10/13 01:44:14;;;;;;;15.43;10.45;;;;;;;15.88;100.00;100320.56;5081694;28;20043;-84
2023/10/13 01:46:47;;;;;;;15.90;10.23;;;;;;;15.83;100.00;100287.97;5093336;28;20045;-84
2023/10/13 01:49:29;;;;;;;15.57;10.18;;;;;;;15.71;100.00;100271.00;5099140;28;20041;-83
2023/10/13 01:52:03;;;;;;;17.77;11.55;;;;;;;15.77;100.00;100281.22;5110651;28;20048;-84
2023/10/13 01:54:37;;;;;;;18.52;10.77;;;;;;;15.92;100.00;100295.31;5110109;28;20052;-84
2023/10/13 01:57:19;;;;;;;16.30;9.95;;;;;;;15.90;100.00;100286.59;5111699;28;20067;-85
2023/10/13 02:00:18;;;;;;;17.42;10.65;;;;;;;15.85;100.00;100288.72;5114998;28;20111;-81
2023/10/13 02:03:21;;;;;;;14.65;10.38;;;;;;;15.88;100.00;100276.00;5105063;27;1613631;-83
2023/10/13 02:05:53;;;;;;;19.42;11.25;;;;;;;15.89;100.00;100277.72;5126439;28;20038;-84
2023/10/13 02:08:31;;;;;;;16.77;10.88;;;;;;;15.57;100.00;100218.59;5141859;27;20043;-81
2023/10/13 02:11:15;;;;;;;17.10;10.50;;;;;;;15.86;100.00;100253.91;5142689;28;20058;-84
2023/10/13 02:13:53;;;;;;;20.27;10.60;;;;;;;15.79;100.00;100248.13;5134294;28;20040;-84
2023/10/13 02:16:22;;;;;;;15.57;10.80;;;;;;;15.83;100.00;100235.44;5125861;28;20040;-84
2023/10/13 02:19:06;;;;;;;17.88;10.77;;;;;;;15.98;100.00;100257.50;5118525;28;20483;-83
2023/10/13 02:21:39;;;;;;;17.73;10.80;;;;;;;15.95;100.00;100253.25;5130895;28;20046;-84
2023/10/13 02:24:18;;;;;;;18.77;11.25;;;;;;;15.90;100.00;100243.88;5132492;28;20054;-82
2023/10/13 02:26:48;;;;;;;16.92;10.45;;;;;;;16.00;100.00;100258.25;5126124;27;20036;-84
2023/10/13 02:32:12;;;;;;;16.83;10.50;;;;;;;16.00;100.00;100253.78;5129836;28;20047;-85
2023/10/13 02:35:15;;;;;;;16.45;10.07;;;;;;;15.99;100.00;100249.38;5126601;28;20059;-85
2023/10/13 02:38:05;;;;;;;19.10;10.90;;;;;;;16.00;100.00;100235.06;5105751;28;20036;-84
2023/10/13 02:40:36;;;;;;;16.95;10.68;;;;;;;16.00;100.00;100227.06;5122817;28;20097;-80
2023/10/13 02:45:58;;;;;;;19.50;10.50;;;;;;;15.95;100.00;100226.53;5116309;28;20107;-81
2023/10/13 02:48:52;;;;;;;20.42;10.85;;;;;;;15.93;100.00;100220.44;5123298;28;20051;-84
2023/10/13 02:51:42;;;;;;;14.88;10.45;;;;;;;15.90;100.00;100201.97;5147671;28;20039;-85
2023/10/13 02:55:26;;;;;;;18.67;11.15;;;;;;;15.90;100.00;100199.28;5069784;28;24408;-85
2023/10/13 02:58:08;;;;;;;20.92;12.23;;;;;;;15.89;100.00;100199.44;5040031;28;20134;-85
2023/10/13 03:00:40;;;;;;;18.92;11.27;;;;;;;15.93;100.00;100208.91;5056785;28;20042;-82
2023/10/13 03:03:22;;;;;;;18.35;11.40;;;;;;;15.78;100.00;100189.50;5051624;28;20049;-83
2023/10/13 03:06:05;;;;;;;19.65;11.30;;;;;;;15.78;100.00;100176.16;5036933;28;20041;-83
2023/10/13 03:08:33;;;;;;;18.55;11.18;;;;;;;15.89;100.00;100194.09;5026544;28;20063;-85
2023/10/13 03:11:11;;;;;;;20.08;10.93;;;;;;;15.99;100.00;100197.78;5037031;28;20053;-84
2023/10/13 03:13:47;;;;;;;18.85;11.63;;;;;;;16.00;100.00;100202.16;5034969;28;20060;-83
2023/10/13 03:16:20;;;;;;;17.17;11.20;;;;;;;16.01;100.00;100191.38;5034778;28;20056;-83
2023/10/13 03:18:55;;;;;;;19.65;12.02;;;;;;;16.01;100.00;100187.84;5036674;28;20054;-83
2023/10/13 03:21:28;;;;;;;18.83;11.45;;;;;;;16.01;100.00;100191.38;5032998;28;20034;-83
2023/10/13 03:24:05;;;;;;;21.23;11.55;;;;;;;16.01;100.00;100194.06;5033148;28;20046;-83
2023/10/13 03:26:44;;;;;;;19.42;11.60;;;;;;;16.01;100.00;100194.06;5034830;28;20037;-83
2023/10/13 03:29:21;;;;;;;20.08;10.93;;;;;;;15.94;100.00;100183.91;5039812;28;20471;-84
2023/10/13 03:32:06;;;;;;;20.90;11.43;;;;;;;15.94;100.00;100187.44;5028378;28;20050;-84
2023/10/13 03:34:40;;;;;;;18.55;12.07;;;;;;;15.95;100.00;100194.47;5038819;28;20407;-84
2023/10/13 03:37:17;;;;;;;20.08;12.07;;;;;;;15.73;100.00;100157.81;5034897;28;20049;-84
2023/10/13 03:39:48;;;;;;;18.67;11.40;;;;;;;15.72;100.00;100153.44;5029829;28;20038;-84
2023/10/13 03:42:23;;;;;;;18.10;11.68;;;;;;;15.90;100.00;100191.28;5034918;28;20493;-81
2023/10/13 03:44:56;;;;;;;22.42;11.75;;;;;;;15.91;100.00;100189.47;5041331;28;20046;-83
2023/10/13 03:47:32;;;;;;;17.70;11.85;;;;;;;15.92;100.00;100183.16;5031601;28;20042;-84
2023/10/13 03:50:16;;;;;;;16.65;11.65;;;;;;;15.93;100.00;100182.19;5044968;28;20046;-83
2023/10/13 03:52:47;;;;;;;20.02;12.25;;;;;;;15.86;100.00;100173.81;5042440;28;20050;-83
2023/10/13 03:55:18;;;;;;;21.30;12.10;;;;;;;15.89;100.00;100172.72;5027062;28;20056;-83
2023/10/13 03:58:34;;;;;;;21.20;12.40;;;;;;;15.91;100.00;100165.44;5135934;27;20729;-84
2023/10/13 04:01:09;;;;;;;17.17;12.23;;;;;;;15.84;100.00;100150.84;5114842;28;20028;-84
2023/10/13 04:03:56;;;;;;;20.60;12.75;;;;;;;15.87;100.00;100163.97;5098154;28;20052;-84
2023/10/13 04:07:13;;;;;;;24.63;15.10;;;;;;;15.75;100.00;100149.66;5097367;28;20048;-84
2023/10/13 04:19:07;;;;;;;23.00;13.93;;;;;;;15.87;100.00;100155.97;5077668;28;20048;-80
2023/10/13 04:21:56;;;;;;;20.58;12.93;;;;;;;15.83;100.00;100138.44;5093549;28;20057;-82
2023/10/13 04:30:26;;;;;;;22.02;12.40;;;;;;;15.93;100.00;100143.00;4996467;28;20045;-84
2023/10/13 04:33:17;;;;;;;18.55;12.25;;;;;;;15.94;100.00;100142.03;5009059;28;20037;-84
2023/10/13 04:35:59;;;;;;;25.02;13.70;;;;;;;15.76;100.00;100114.84;5058289;28;20056;-82
2023/10/13 04:38:50;;;;;;;21.63;14.90;;;;;;;15.71;100.00;100122.38;5039020;28;20045;-81
2023/10/13 04:41:22;;;;;;;27.25;14.07;;;;;;;15.66;100.00;100119.16;5091486;28;20045;-82
2023/10/13 04:44:47;;;;;;;23.55;13.85;;;;;;;15.86;100.00;100152.44;5090596;28;20045;-83
2023/10/13 04:47:07;;;;;;;24.77;14.10;;;;;;;15.86;100.00;100147.09;5081006;28;20068;-81
2023/10/13 04:49:54;;;;;;;24.25;13.90;;;;;;;15.83;100.00;100135.78;5099163;28;20144;-82
2023/10/13 04:58:35;;;;;;;21.10;13.50;;;;;;;15.92;100.00;100124.41;5059093;28;20060;-82
2023/10/13 05:04:22;;;;;;;22.52;13.15;;;;;;;15.83;100.00;100101.94;5059121;28;20493;-83
2023/10/13 05:47:46;;;;;;;23.15;12.90;;;;;;;15.78;100.00;100086.22;5056778;28;20046;-83
2023/10/13 05:50:29;;;;;;;18.63;12.05;;;;;;;15.83;100.00;100093.91;5084276;28;20340;-83
2023/10/13 06:29:46;;;;;;;24.13;12.25;;;;;;;16.13;100.00;100106.81;5060681;28;20069;-83
2023/10/13 06:38:20;;;;;;;18.17;11.90;;;;;;;16.28;100.00;100105.66;5064536;28;20401;-83
2023/10/13 06:40:56;;;;;;;22.30;12.15;;;;;;;16.29;100.00;100109.19;5040013;28;20056;-84
2023/10/13 06:43:25;;;;;;;19.85;12.63;;;;;;;16.29;100.00;100103.84;5057543;28;20051;-84
2023/10/13 06:46:00;;;;;;;23.83;11.85;;;;;;;16.19;100.00;100081.47;5027850;28;20505;-83
2023/10/13 06:48:59;;;;;;;23.00;12.23;;;;;;;16.30;100.00;100102.88;5061339;28;20199;-83
2023/10/13 06:51:46;;;;;;;20.05;12.80;;;;;;;16.30;100.00;100117.09;5063472;28;20069;-82
2023/10/13 06:54:42;;;;;;;18.95;12.05;;;;;;;16.33;100.00;100129.38;5092302;27;1338841;-83
2023/10/13 06:57:17;;;;;;;22.02;13.23;;;;;;;16.34;100.00;100126.59;5098819;28;20041;-82
2023/10/13 06:59:53;;;;;;;19.20;12.10;;;;;;;16.32;100.00;100109.81;5088539;28;20032;-82
2023/10/13 07:02:33;;;;;;;20.35;12.63;;;;;;;16.47;100.00;100132.72;5096765;28;20040;-81
2023/10/13 07:05:07;;;;;;;24.45;12.82;;;;;;;16.41;100.00;100106.44;5073597;28;20075;-84
2023/10/13 07:07:40;;;;;;;24.05;13.07;;;;;;;16.59;100.00;100122.06;5082939;28;20097;-84
2023/10/13 07:13:39;;;;;;;21.65;12.10;;;;;;;16.64;100.00;100119.94;5080979;28;20048;-83
2023/10/13 07:16:12;;;;;;;18.95;11.60;;;;;;;16.71;100.00;100121.16;5080598;28;20040;-83
2023/10/13 07:24:53;;;;;;;20.08;11.50;;;;;;;16.91;100.00;100107.09;5080076;28;20052;-82
2023/10/13 07:27:35;;;;;;;20.42;11.15;;;;;;;16.80;100.00;100091.03;5078634;28;20144;-83
2023/10/13 07:32:59;;;;;;;22.98;10.95;;;;;;;17.00;100.00;100101.00;5083491;28;20044;-83
2023/10/13 07:35:31;;;;;;;;;;;;;;;17.02;100.00;100107.09;5087724;28;20086;-83
2023/10/13 07:38:00;;;;;;;21.63;11.90;;;;;;;17.12;100.00;100104.56;5087711;28;20010;-81
2023/10/13 07:43:22;;;;;;;24.52;12.65;;;;;;;16.78;100.00;100060.88;5084874;28;20100;-84
2023/10/13 07:45:58;;;;;;;22.90;11.45;;;;;;;17.19;100.00;100103.97;5091607;28;20063;-83
2023/10/13 07:48:29;;;;;;;21.15;11.93;;;;;;;17.30;100.00;100103.13;5085610;28;20040;-83
2023/10/13 07:51:02;;;;;;;19.30;11.02;;;;;;;17.30;100.00;100113.84;5084209;28;20039;-83
2023/10/13 07:56:18;;;;;;;21.70;11.27;;;;;;;17.17;100.00;100078.28;5074482;28;20053;-83
2023/10/13 07:59:00;;;;;;;23.38;11.13;;;;;;;17.41;100.00;100099.59;5080754;28;20048;-84
2023/10/13 08:04:28;;;;;;;20.77;11.60;;;;;;;17.58;100.00;100095.56;5097274;28;20041;-82
2023/10/13 08:07:11;;;;;;;21.58;11.13;;;;;;;17.80;100.00;100088.34;5074136;28;20028;-83
2023/10/13 08:13:01;;;;;;;19.90;11.13;;;;;;;18.06;100.00;100088.06;5061479;28;20048;-83
2023/10/13 08:15:40;;;;;;;15.77;10.20;;;;;;;17.97;100.00;100084.28;5064526;28;20069;-84
2023/10/13 08:20:53;;;;;;;18.00;10.65;;;;;;;17.74;100.00;100066.59;5056963;28;20044;-83
2023/10/13 08:23:57;;;;;;;20.83;10.80;;;;;;;17.93;100.00;100098.09;5084915;28;20109;-84
2023/10/13 08:26:38;;;;;;;20.58;10.75;;;;;;;17.99;100.00;100087.69;5075953;28;20059;-83
2023/10/13 08:32:36;;;;;;;16.95;10.60;;;;;;;18.06;100.00;100035.31;5067777;28;20063;-83
2023/10/13 08:44:03;;;;;;;17.20;9.45;;;;;;;18.81;100.00;100058.44;5058930;28;20083;-84
2023/10/13 08:49:39;;;;;;;14.48;8.75;;;;;;;19.03;100.00;100050.25;5080587;28;20055;-82
2023/10/13 08:52:48;;;;;;;14.98;8.15;;;;;;;18.93;100.00;100057.38;5068870;28;20075;-84
2023/10/13 08:55:39;;;;;;;15.70;8.40;;;;;;;18.72;100.00;100059.25;5072346;28;20044;-83
2023/10/13 09:01:11;;;;;;;14.90;8.20;;;;;;;18.73;100.00;100040.31;5064619;28;20500;-83
2023/10/13 09:03:42;;;;;;;15.40;8.07;;;;;;;19.08;100.00;100047.97;5067243;28;20067;-84
2023/10/13 09:06:42;;;;;;;19.17;8.32;;;;;;;19.27;100.00;100033.78;5066484;28;20059;-84
2023/10/13 09:12:07;;;;;;;13.20;8.10;;;;;;;19.17;100.00;100006.94;5062193;28;20072;-84
2023/10/13 09:17:38;;;;;;;12.85;7.05;;;;;;;19.45;100.00;100004.44;5067786;28;20043;-82
2023/10/13 09:20:24;;;;;;;16.10;7.72;;;;;;;19.56;100.00;99990.94;5079735;28;20036;-84
2023/10/13 09:23:24;;;;;;;15.65;7.03;;;;;;;19.35;100.00;99992.84;5074455;28;20117;-83
2023/10/13 09:26:08;;;;;;;12.05;6.95;;;;;;;19.28;100.00;100020.22;5073098;28;20028;-82
2023/10/13 09:28:40;;;;;;;15.25;6.95;;;;;;;19.08;100.00;99975.53;5075260;28;20060;-81
2023/10/13 09:31:10;;;;;;;13.05;7.32;;;;;;;19.37;100.00;100004.28;5073105;28;20036;-81
2023/10/13 09:33:55;;;;;;;17.17;7.78;;;;;;;19.35;100.00;100008.97;5062180;28;20024;-83
2023/10/13 09:36:25;;;;;;;15.88;6.95;;;;;;;18.86;100.00;99919.41;5085230;28;20099;-81
2023/10/13 09:42:18;;;;;;;14.98;7.22;;;;;;;19.39;100.00;100005.00;5186289;27;20624;-84
2023/10/13 09:44:55;;;;;;;14.40;7.03;;;;;;;19.48;100.00;100009.56;5155545;27;20078;-84
2023/10/13 09:47:40;;;;;;;14.00;7.13;;;;;;;19.55;100.00;99999.97;5148064;27;20070;-84
2023/10/13 09:50:23;;;;;;;15.40;7.22;;;;;;;19.66;100.00;100010.63;5124326;28;20111;-83
2023/10/13 09:53:10;;;;;;;16.35;7.10;;;;;;;19.58;100.00;99959.41;5121254;28;20050;-83
2023/10/13 09:55:49;;;;;;;12.45;6.63;;;;;;;20.05;100.00;99991.81;5149046;27;20142;-84
2023/10/13 10:01:40;;;;;;;9.63;6.60;;;;;;;20.71;100.00;99986.50;5117390;28;20063;-82
2023/10/13 10:04:18;;;;;;;14.57;7.07;;;;;;;20.94;100.00;99983.28;5130860;28;20096;-85
2023/10/13 10:07:08;;;;;;;10.95;6.68;;;;;;;20.89;100.00;99939.81;5127330;28;20074;-83
2023/10/13 10:09:43;;;;;;;11.13;6.40;;;;;;;21.23;100.00;99945.47;5129963;28;20028;-85
2023/10/13 10:12:30;;;;;;;12.10;6.38;;;;;;;21.58;100.00;99958.13;5127525;28;20419;-83
2023/10/13 10:18:21;;;;;;;12.13;6.55;;;;;;;22.47;100.00;99992.31;5124830;28;20058;-83
2023/10/13 10:20:55;;;;;;;10.55;5.95;;;;;;;22.71;99.56;99989.75;5118727;28;20048;-84
2023/10/13 10:23:36;;;;;;;13.75;6.72;;;;;;;22.40;96.19;99917.38;5119668;28;20079;-83
2023/10/13 10:26:13;;;;;;;11.45;6.72;;;;;;;22.63;92.84;99931.19;5113891;28;20048;-83
2023/10/13 10:28:55;;;;;;;12.50;6.85;;;;;;;22.86;90.14;99980.09;5120647;28;20107;-83
2023/10/13 10:32:08;;;;;;;9.98;6.72;;;;;;;22.78;91.80;99979.22;5114291;28;20503;-83
2023/10/13 10:34:43;;;;;;;12.05;6.10;;;;;;;22.42;92.62;99990.06;5118658;28;20048;-83
2023/10/13 10:37:19;;;;;;;13.40;6.32;;;;;;;22.40;95.88;99983.97;5129686;28;20040;-83
2023/10/13 10:42:32;;;;;;;12.32;6.25;;;;;;;22.75;93.10;99956.03;5125115;28;20037;-84
2023/10/13 10:45:11;;;;;;;12.82;6.28;;;;;;;22.74;91.17;99941.69;5120827;28;20046;-84
2023/10/13 10:47:51;;;;;;;14.05;6.63;;;;;;;22.70;91.59;99952.97;5128529;27;20112;-84
2023/10/13 10:50:36;;;;;;;13.00;6.65;;;;;;;22.48;90.49;99940.88;5140977;27;20028;-82
2023/10/13 10:53:15;;;;;;;12.57;6.75;;;;;;;22.64;91.03;99940.97;5130382;28;20068;-83
2023/10/13 10:55:54;;;;;;;;;;;;;;;22.72;92.08;99938.31;5111424;28;20051;-83
2023/10/13 11:01:19;;;;;;;15.47;6.07;;;;;;;22.83;86.24;99933.66;5105216;28;20024;-83
2023/10/13 11:03:58;;;;;;;11.07;6.53;;;;;;;22.84;83.98;99886.75;5090590;28;20040;-85
2023/10/13 11:06:38;;;;;;;9.85;6.07;;;;;;;23.15;81.57;99884.34;5107231;28;20040;-83
2023/10/13 11:09:31;;;;;;;10.68;6.63;;;;;;;23.30;80.42;99888.94;5099009;28;20048;-82
2023/10/13 11:12:23;;;;;;;9.75;5.28;;;;;;;23.55;79.64;99853.88;5105134;28;20044;-85
2023/10/13 11:15:01;;;;;;;10.50;5.85;;;;;;;24.05;77.28;99892.41;5142805;27;20071;-84
2023/10/13 11:17:51;;;;;;;11.10;6.10;;;;;;;24.19;73.72;99885.44;5094595;28;20048;-84
2023/10/13 11:26:14;;;;;;;12.60;5.90;;;;;;;24.12;72.63;99885.28;5119980;28;20078;-83
2023/10/13 11:31:58;;;;;;;12.40;6.95;;;;;;;24.09;74.66;99877.50;5098865;28;20048;-83
2023/10/13 11:34:41;;;;;;;9.00;5.60;;;;;;;24.11;75.10;99840.31;5099745;28;20073;-82
2023/10/13 11:43:14;;;;;;;10.68;5.93;;;;;;;24.20;74.26;99838.44;5100839;28;20056;-83
2023/10/13 11:46:55;;;;;;;8.18;6.07;;;;;;;24.61;70.56;99828.34;5136720;27;20044;-85
2023/10/13 11:49:34;;;;;;;10.15;6.50;;;;;;;24.91;72.04;99826.66;5102431;28;20084;-83
2023/10/13 11:52:25;;;;;;;9.32;5.82;;;;;;;24.89;70.71;99823.28;5092376;28;20060;-84
2023/10/13 11:55:07;;;;;;;8.45;5.88;;;;;;;24.67;69.67;99843.91;5110976;28;20066;-84
2023/10/13 11:57:36;;;;;;;11.40;6.68;;;;;;;24.44;71.45;99832.13;5090192;28;20040;-83
2023/10/13 12:00:26;;;;;;;15.73;5.63;;;;;;;24.28;70.36;99843.84;5104702;28;20058;-84
2023/10/13 12:06:06;;;;;;;11.07;6.40;;;;;;;24.09;74.62;99814.44;5115638;28;20050;-82
2023/10/13 12:08:58;;;;;;;12.02;6.32;;;;;;;24.27;73.33;99815.09;5113080;28;20024;-83
2023/10/13 12:11:32;;;;;;;10.55;6.57;;;;;;;24.34;75.24;99807.13;5119315;27;20028;-82
2023/10/13 12:14:11;;;;;;;10.52;6.60;;;;;;;24.00;75.43;99755.97;5115604;27;20074;-83
2023/10/13 12:16:48;;;;;;;8.48;6.30;;;;;;;24.24;76.32;99803.81;5109258;28;20052;-83
2023/10/13 12:19:35;;;;;;;8.60;5.68;;;;;;;24.05;76.43;99811.25;5105216;28;20044;-82
2023/10/13 12:22:16;;;;;;;10.50;6.00;;;;;;;23.81;77.79;99784.25;5101589;28;20039;-82
2023/10/13 12:25:04;;;;;;;10.00;6.63;;;;;;;23.74;78.86;99783.25;5095682;28;20100;-81
2023/10/13 12:27:59;;;;;;;16.15;7.30;;;;;;;23.87;78.75;99788.13;5111009;27;20036;-83
2023/10/13 12:30:48;;;;;;;11.85;6.53;;;;;;;23.86;79.21;99781.88;5101201;28;20044;-84
2023/10/13 12:33:24;;;;;;;16.48;8.40;;;;;;;24.00;77.12;99807.38;5108687;28;20041;-82
2023/10/13 12:36:09;;;;;;;10.77;7.82;;;;;;;23.99;77.21;99773.22;5106473;28;20040;-83
2023/10/13 12:48:55;;;;;;;13.57;8.40;;;;;;;24.29;76.63;99790.56;5097781;28;20096;-84
2023/10/13 12:53:15;;;;;;;10.00;5.78;;;;;;;24.28;74.11;99769.94;5104834;28;20048;-83
2023/10/13 12:55:55;;;;;;;10.48;6.10;;;;;;;24.33;74.13;99764.88;5097047;28;20041;-83
2023/10/13 12:58:26;;;;;;;9.77;5.57;;;;;;;24.16;72.48;99741.56;5106293;28;20140;-83
2023/10/13 13:01:16;;;;;;;10.95;5.18;;;;;;;24.35;73.16;99768.25;5101981;28;20059;-85
2023/10/13 13:06:30;;;;;;;12.07;5.82;;;;;;;24.38;74.43;99754.38;5103874;28;20044;-85
2023/10/13 13:09:03;;;;;;;14.35;6.43;;;;;;;24.44;73.33;99757.19;5133160;27;20135;-85
2023/10/13 13:11:39;;;;;;;6.57;5.30;;;;;;;24.58;73.00;99746.63;5109638;28;20040;-82
2023/10/13 13:14:10;;;;;;;13.88;5.68;;;;;;;24.54;70.75;99740.75;5109986;28;20040;-82
2023/10/13 13:17:21;;;;;;;8.55;5.40;;;;;;;24.70;69.71;99747.94;5099742;28;20040;-82
2023/10/13 13:20:29;;;;;;;11.38;5.15;;;;;;;24.95;71.32;99745.94;5107521;28;20048;-83
2023/10/13 13:23:06;;;;;;;9.55;5.38;;;;;;;24.94;67.44;99728.00;5121626;28;20036;-84
2023/10/13 13:25:42;;;;;;;11.38;6.05;;;;;;;25.02;67.03;99734.22;5105716;28;20053;-84
2023/10/13 13:28:11;;;;;;;8.32;5.25;;;;;;;25.18;67.35;99742.19;5113098;28;20024;-84
2023/10/13 13:33:38;;;;;;;12.90;5.90;;;;;;;25.20;68.13;99735.75;5096736;28;20060;-83
2023/10/13 13:36:22;;;;;;;9.95;5.45;;;;;;;;;;5108571;28;20075;-85
2023/10/13 13:38:54;;;;;;;8.63;5.57;;;;;;;25.16;61.44;99724.44;5118350;28;20044;-84
2023/10/13 13:41:27;;;;;;;16.20;6.38;;;;;;;24.79;63.29;99669.16;5109445;28;20048;-82
2023/10/13 13:46:46;;;;;;;11.52;5.72;;;;;;;25.33;61.06;99706.19;5117726;28;20048;-84
2023/10/13 14:03:30;;;;;;;12.73;5.50;;;;;;;25.08;57.04;99664.91;6132071;22;5152585;-84
2023/10/13 14:06:23;;;;;;;12.43;5.25;;;;;;;24.81;58.83;99650.88;6329588;22;20019;-83
2023/10/13 14:09:14;;;;;;;10.73;5.95;;;;;;;24.86;56.75;99682.00;6330055;22;20015;-83
2023/10/13 14:14:56;;;;;;;10.43;5.75;;;;;;;24.73;57.73;99682.56;6332472;22;20019;-85
2023/10/13 14:17:46;;;;;;;7.68;5.50;;;;;;;24.68;58.88;99674.16;6327974;22;20026;-85
2023/10/13 14:26:09;;;;;;;8.35;4.78;;;;;;;24.40;58.79;99638.63;6333964;22;20045;-84
2023/10/13 14:28:51;;;;;;;9.00;4.95;;;;;;;24.42;57.07;99632.03;6309866;22;20096;-84
2023/10/13 14:31:23;;;;;;;8.40;4.72;;;;;;;24.44;55.63;99632.69;6330252;22;20018;-84
2023/10/13 14:36:36;;;;;;;9.27;4.82;;;;;;;24.31;54.21;99574.78;6340254;22;20018;-83
2023/10/13 14:39:11;;;;;;;11.82;5.65;;;;;;;24.60;53.97;99598.41;6339530;22;20019;-84
2023/10/13 14:45:12;;;;;;;10.43;5.18;;;;;;;24.62;51.65;99589.09;4574767;27;16249176;-85
2023/10/13 14:47:42;;;;;;;7.97;4.78;;;;;;;24.74;50.33;99573.25;5124234;28;20050;-83
2023/10/13 14:50:19;;;;;;;12.35;5.00;;;;;;;25.16;48.36;99616.06;5120528;28;20044;-86
2023/10/13 14:58:26;;;;;;;7.50;4.50;;;;;;;24.90;49.97;99583.94;5122278;28;20067;-83
2023/10/13 15:01:03;;;;;;;10.57;5.20;;;;;;;24.85;50.20;99585.53;5121767;28;20048;-85
2023/10/13 15:03:38;;;;;;;8.57;4.93;;;;;;;24.76;51.82;99596.41;5120113;28;20046;-84
2023/10/13 15:06:17;;;;;;;9.40;4.30;;;;;;;24.41;51.74;99565.41;5130274;28;20051;-84
2023/10/13 15:11:45;;;;;;;7.85;4.75;;;;;;;24.48;53.15;99598.00;5126967;28;20138;-85
2023/10/13 15:14:32;;;;;;;9.18;4.47;;;;;;;24.12;53.02;99544.44;5104388;28;20044;-82
2023/10/13 15:21:02;;;;;;;9.38;5.20;;;;;;;23.98;54.49;99522.72;5111359;28;20055;-85
2023/10/13 15:32:57;;;;;;;7.13;4.90;;;;;;;24.14;54.82;99572.16;5118516;28;20061;-84
2023/10/13 15:35:46;;;;;;;9.88;5.50;;;;;;;24.08;53.01;99553.91;5092671;28;20050;-84
2023/10/13 15:38:21;;;;;;;8.13;5.10;;;;;;;24.06;53.50;99550.59;5099698;28;20049;-83
2023/10/13 15:46:49;;;;;;;7.38;4.72;;;;;;;24.05;52.49;99545.34;5100300;28;20492;-85
2023/10/13 15:52:35;;;;;;;6.75;4.88;;;;;;;24.01;52.61;99531.34;5102344;28;20044;-83
2023/10/13 15:55:17;;;;;;;14.27;5.40;;;;;;;23.88;52.85;99519.44;5116370;28;20484;-84
2023/10/13 15:57:55;;;;;;;8.15;5.13;;;;;;;23.86;53.15;99530.41;5116502;28;20044;-83
2023/10/13 16:00:32;;;;;;;7.45;4.97;;;;;;;23.77;53.56;99531.47;5105788;28;20044;-84
2023/10/13 16:06:33;;;;;;;8.15;4.90;;;;;;;23.66;53.26;99534.56;5112365;28;20047;-83
2023/10/13 16:09:13;;;;;;;10.07;6.22;;;;;;;23.54;53.75;99528.72;5103953;28;20100;-84
2023/10/13 16:11:45;;;;;;;13.77;5.15;;;;;;;23.37;53.80;99505.47;5111742;28;20095;-84
2023/10/13 16:14:31;;;;;;;14.40;6.85;;;;;;;23.35;53.87;99511.03;5110250;28;20062;-84
2023/10/13 16:17:04;;;;;;;13.60;6.22;;;;;;;23.41;54.36;99525.72;5102236;28;20044;-84
2023/10/13 16:19:53;;;;;;;8.93;5.18;;;;;;;23.39;55.01;99536.69;5114817;28;20039;-85
2023/10/13 16:25:49;;;;;;;9.30;5.20;;;;;;;23.11;56.03;99502.19;5139674;27;24421;-83
2023/10/13 16:28:18;;;;;;;10.93;5.95;;;;;;;23.14;56.27;99515.38;5154824;27;20120;-84
2023/10/13 16:30:55;;;;;;;12.30;6.00;;;;;;;23.15;56.81;99523.25;5146590;27;20110;-84
2023/10/13 16:33:35;;;;;;;10.73;6.15;;;;;;;23.09;57.35;99534.78;5130961;27;20048;-83
2023/10/13 16:36:13;;;;;;;12.20;5.50;;;;;;;22.88;57.50;99499.38;5145015;27;20074;-84
2023/10/13 16:38:58;;;;;;;15.00;5.63;;;;;;;22.91;57.46;99507.97;5147249;27;20051;-82
2023/10/13 16:47:29;;;;;;;14.25;5.70;;;;;;;22.87;57.27;99519.28;5138098;27;19919;-83
2023/10/13 16:55:43;;;;;;;9.48;6.28;;;;;;;22.77;57.91;99526.75;5138410;27;20118;-83
2023/10/13 16:58:44;;;;;;;9.77;5.88;;;;;;;22.72;58.40;99516.41;5140873;27;20051;-85
2023/10/13 17:04:06;;;;;;;7.70;5.80;;;;;;;22.40;59.07;99477.66;5137593;27;20075;-83
2023/10/13 17:06:39;;;;;;;11.40;7.25;;;;;;;22.56;59.48;99502.94;5142493;28;20048;-84
2023/10/13 17:11:56;;;;;;;12.40;8.55;;;;;;;22.47;60.35;99495.88;5143846;27;20043;-83
2023/10/13 17:14:31;;;;;;;13.63;7.90;;;;;;;22.33;60.74;99465.03;5112560;28;20085;-84
2023/10/13 17:17:04;;;;;;;15.35;9.55;;;;;;;22.39;61.34;99473.28;5112587;27;20094;-84
2023/10/13 17:19:35;;;;;;;13.80;9.23;;;;;;;22.45;61.07;99479.88;5133842;27;20043;-84
2023/10/13 17:22:16;;;;;;;15.63;9.15;;;;;;;22.30;60.81;99459.97;5143736;27;20044;-83
2023/10/13 17:24:46;;;;;;;13.13;8.25;;;;;;;22.33;60.74;99460.50;5139032;27;20115;-83
2023/10/13 17:27:22;;;;;;;15.15;9.68;;;;;;;22.43;60.98;99473.78;5136795;27;20043;-83
2023/10/13 17:33:16;;;;;;;13.20;8.52;;;;;;;22.39;60.76;99467.03;5135295;27;20050;-82
2023/10/13 17:35:46;;;;;;;14.43;7.55;;;;;;;22.34;60.69;99458.63;5132083;28;20051;-83
2023/10/13 17:38:17;;;;;;;12.50;5.70;;;;;;;22.39;60.72;99459.78;5110936;28;20044;-84
2023/10/13 17:40:55;;;;;;;10.55;6.30;;;;;;;22.36;60.84;99465.53;5127097;27;20048;-83
2023/10/13 17:49:46;;;;;;;10.38;6.45;;;;;;;21.98;62.49;99431.97;5133835;27;20052;-81
2023/10/13 17:58:09;;;;;;;11.43;6.50;;;;;;;22.05;63.80;99448.34;5121221;28;20071;-83
2023/10/13 18:06:58;;;;;;;11.82;6.85;;;;;;;21.91;66.34;99452.50;5146732;27;20045;-83
2023/10/13 18:09:29;;;;;;;13.07;6.82;;;;;;;21.79;67.00;99436.84;5143231;27;20061;-83
2023/10/13 18:21:02;;;;;;;15.73;8.77;;;;;;;21.62;70.67;99449.44;5118001;28;20071;-83
2023/10/13 18:27:18;;;;;;;17.50;9.10;;;;;;;21.57;70.12;99436.47;5112738;28;20047;-83
2023/10/13 18:36:16;;;;;;;13.20;7.80;;;;;;;21.23;69.22;99388.09;5125529;27;20039;-83
2023/10/13 18:39:09;;;;;;;10.02;6.35;;;;;;;21.48;69.24;99413.22;5123811;28;20047;-83